Time;durP1;ratioP1;P1;durP2;ratioP2;P2;SDS_P1;SDS_P2;PMS_P1;PMS_P2;Temp;Humidity;BMP_temperature;BMP_pressure;BME280_temperature;BME280_humidity;BME280_pressure;Samples;Min_cycle;Max_cycle;Signal;HPM_P1;HPM_P2
2023/04/17 00:00:36;;;;;;;44.70;19.38;;;;;;;;;;6111019;23;20038;-95
2023/04/17 00:03:12;;;;;;;50.05;19.50;;;;;;;;;;6112400;23;20009;-94
2023/04/17 00:05:57;;;;;;;44.60;18.63;;;;;;;;;;6133884;23;20009;-93
2023/04/17 00:08:25;;;;;;;45.95;20.25;;;;;;;;;;6113134;23;20089;-94
2023/04/17 00:10:51;;;;;;;44.45;20.15;;;;;;;;;;6136506;23;20017;-94
2023/04/17 00:13:17;;;;;;;44.40;19.20;;;;;;;;;;6111337;23;20497;-94
2023/04/17 00:15:43;;;;;;;49.33;19.83;;;;;;;;;;6137086;23;20017;-94
2023/04/17 00:18:09;;;;;;;45.55;20.30;;;;;;;;;;6113151;23;20329;-94
2023/04/17 00:20:45;;;;;;;47.85;20.65;;;;;;;;;;6135109;23;20017;-94
2023/04/17 00:23:12;;;;;;;46.80;20.13;;;;;;;;;;6112668;23;20010;-93
2023/04/17 00:25:39;;;;;;;41.88;19.52;;;;;;;;;;6115779;23;19997;-93
2023/04/17 00:28:05;;;;;;;47.40;19.02;;;;;;;;;;6120114;23;20009;-93
2023/04/17 00:30:34;;;;;;;41.42;18.50;;;;;;;;;;6144146;23;20036;-94
2023/04/17 00:33:00;;;;;;;47.08;19.33;;;;;;;;;;6140610;23;20002;-94
2023/04/17 00:35:27;;;;;;;44.13;19.55;;;;;;;;;;6112319;23;20002;-94
2023/04/17 00:37:53;;;;;;;47.72;21.25;;;;;;;;;;6114241;23;20006;-95
2023/04/17 00:40:19;;;;;;;50.13;19.48;;;;;;;;;;6113882;23;20530;-95
2023/04/17 00:42:51;;;;;;;46.53;19.48;;;;;;;;;;6114251;23;20021;-95
2023/04/17 00:45:18;;;;;;;44.08;19.85;;;;;;;;;;6136164;23;20013;-94
2023/04/17 00:47:44;;;;;;;48.88;21.23;;;;;;;;;;6113854;23;20203;-94
2023/04/17 00:50:11;;;;;;;48.50;20.98;;;;;;;;;;6136997;23;20037;-95
2023/04/17 00:52:37;;;;;;;49.55;21.02;;;;;;;;;;6137108;23;20370;-95
2023/04/17 00:55:07;;;;;;;52.63;21.42;;;;;;;;;;6140320;23;20033;-94
2023/04/17 00:57:34;;;;;;;52.25;22.23;;;;;;;;;;6136523;23;20573;-95
2023/04/17 01:00:24;;;;;;;59.38;22.08;;;;;;;;;;6138853;23;20010;-94
2023/04/17 01:05:38;;;;;;;54.22;22.00;;;;;;;;;;6137044;23;20024;-94
2023/04/17 01:08:05;;;;;;;49.20;21.27;;;;;;;;;;6136797;23;20018;-95
2023/04/17 01:10:34;;;;;;;54.22;22.27;;;;;;;;;;6136084;23;20621;-94
2023/04/17 01:13:01;;;;;;;48.13;21.83;;;;;;;;;;6112010;23;20010;-94
2023/04/17 01:15:40;;;;;;;50.42;21.67;;;;;;;;;;6138020;23;20001;-96
2023/04/17 01:18:19;;;;;;;60.47;23.05;;;;;;;;;;6112991;23;20002;-95
2023/04/17 01:20:45;;;;;;;54.97;22.17;;;;;;;;;;6136346;23;20017;-95
2023/04/17 01:23:12;;;;;;;55.83;23.13;;;;;;;;;;6113223;23;20016;-94
2023/04/17 01:25:50;;;;;;;50.60;21.10;;;;;;;;;;6136488;23;20006;-93
2023/04/17 01:28:20;;;;;;;57.75;23.17;;;;;;;;;;6135368;23;20013;-94
2023/04/17 01:30:46;;;;;;;55.08;21.27;;;;;;;;;;6112151;23;20360;-93
2023/04/17 01:33:19;;;;;;;49.47;20.63;;;;;;;;;;6112623;23;20013;-94
2023/04/17 01:35:55;;;;;;;;;;;;;;;;;;;;;
2023/04/17 01:38:22;;;;;;;54.70;21.88;;;;;;;;;;6135829;23;20029;-94
2023/04/17 01:40:49;;;;;;;54.22;21.58;;;;;;;;;;6112555;23;20021;-94
2023/04/17 01:43:20;;;;;;;53.28;21.63;;;;;;;;;;6133532;23;20109;-93
2023/04/17 01:45:46;;;;;;;54.70;22.17;;;;;;;;;;6136860;23;20006;-94
2023/04/17 01:48:27;;;;;;;48.65;22.20;;;;;;;;;;6133847;23;20037;-94
2023/04/17 01:50:53;;;;;;;53.63;20.30;;;;;;;;;;6134557;23;20065;-94
2023/04/17 01:53:22;;;;;;;40.85;19.05;;;;;;;;;;6134354;23;19998;-95
2023/04/17 01:55:50;;;;;;;47.63;20.35;;;;;;;;;;6114944;23;20018;-94
2023/04/17 01:58:31;;;;;;;44.80;19.08;;;;;;;;;;6133748;23;20009;-96
2023/04/17 02:00:59;;;;;;;50.35;20.73;;;;;;;;;;6134966;23;20304;-94
2023/04/17 02:03:25;;;;;;;40.70;18.20;;;;;;;;;;6134748;23;20349;-94
2023/04/17 02:06:10;;;;;;;49.95;21.45;;;;;;;;;;6135310;23;20010;-94
2023/04/17 02:08:38;;;;;;;46.20;19.48;;;;;;;;;;6132252;23;20098;-93
2023/04/17 02:11:05;;;;;;;45.25;18.23;;;;;;;;;;6135309;23;20025;-94
2023/04/17 02:16:23;;;;;;;43.55;19.00;;;;;;;;;;6129913;23;20013;-93
2023/04/17 02:18:53;;;;;;;42.00;19.25;;;;;;;;;;6133437;23;20049;-94
2023/04/17 02:21:26;;;;;;;43.42;18.48;;;;;;;;;;6111380;23;20062;-92
2023/04/17 02:23:52;;;;;;;43.05;19.63;;;;;;;;;;6110434;23;20096;-94
2023/04/17 02:26:23;;;;;;;37.17;17.70;;;;;;;;;;6134540;23;20002;-94
2023/04/17 02:28:50;;;;;;;48.97;18.67;;;;;;;;;;6110712;23;20018;-93
2023/04/17 02:31:16;;;;;;;47.72;20.67;;;;;;;;;;6133759;23;20349;-94
2023/04/17 02:33:52;;;;;;;49.10;19.85;;;;;;;;;;6110350;23;19986;-94
2023/04/17 02:36:25;;;;;;;50.00;18.98;;;;;;;;;;6135638;23;20010;-94
2023/04/17 02:38:54;;;;;;;45.20;18.83;;;;;;;;;;6110333;23;20006;-94
2023/04/17 02:41:23;;;;;;;41.20;18.10;;;;;;;;;;6109339;23;20018;-93
2023/04/17 02:44:16;;;;;;;46.55;19.02;;;;;;;;;;6132794;23;20010;-93
2023/04/17 02:46:42;;;;;;;38.38;18.00;;;;;;;;;;6117304;23;20021;-93
2023/04/17 02:49:11;;;;;;;41.20;18.35;;;;;;;;;;6132450;23;20014;-93
2023/04/17 02:51:41;;;;;;;40.33;17.95;;;;;;;;;;6107919;23;20014;-93
2023/04/17 02:54:11;;;;;;;46.13;19.63;;;;;;;;;;6130884;23;20006;-94
2023/04/17 02:56:44;;;;;;;48.10;19.25;;;;;;;;;;6115959;23;20049;-94
2023/04/17 02:59:10;;;;;;;49.33;21.27;;;;;;;;;;6130170;23;20033;-94
2023/04/17 03:01:37;;;;;;;46.20;19.85;;;;;;;;;;6104368;23;20010;-94
2023/04/17 03:04:03;;;;;;;50.28;20.30;;;;;;;;;;6107385;23;20069;-93
2023/04/17 03:06:29;;;;;;;50.22;19.30;;;;;;;;;;6106812;23;20047;-93
2023/04/17 03:08:56;;;;;;;52.60;21.42;;;;;;;;;;6107266;23;20018;-94
2023/04/17 03:11:23;;;;;;;52.53;21.50;;;;;;;;;;6106536;23;20093;-93
2023/04/17 03:13:50;;;;;;;45.40;18.83;;;;;;;;;;6106831;23;20017;-94
2023/04/17 03:16:20;;;;;;;41.08;18.02;;;;;;;;;;6107435;23;20058;-94
2023/04/17 03:18:46;;;;;;;45.35;18.73;;;;;;;;;;6108742;23;20104;-94
2023/04/17 03:21:12;;;;;;;44.47;17.48;;;;;;;;;;6131301;23;20041;-94
2023/04/17 03:23:38;;;;;;;39.72;16.65;;;;;;;;;;6107253;23;20609;-94
2023/04/17 03:26:05;;;;;;;41.38;16.05;;;;;;;;;;6131434;23;20006;-94
2023/04/17 03:28:46;;;;;;;44.08;17.40;;;;;;;;;;6106024;23;20014;-94
2023/04/17 03:31:12;;;;;;;43.92;17.23;;;;;;;;;;6110307;23;20010;-93
2023/04/17 03:33:38;;;;;;;47.28;18.20;;;;;;;;;;6108169;23;20314;-94
2023/04/17 03:36:14;;;;;;;45.80;18.63;;;;;;;;;;6106807;23;20006;-93
2023/04/17 03:38:40;;;;;;;;;;;;;;;;;;6109010;23;20017;-94
2023/04/17 03:41:06;;;;;;;45.85;18.08;;;;;;;;;;6131462;23;19968;-96
2023/04/17 03:43:32;;;;;;;47.95;18.95;;;;;;;;;;6107873;23;20033;-92
2023/04/17 03:46:18;;;;;;;44.28;17.88;;;;;;;;;;6107648;23;20018;-94
2023/04/17 03:48:44;;;;;;;59.78;19.45;;;;;;;;;;6133036;23;20158;-93
2023/04/17 03:51:14;;;;;;;48.50;18.38;;;;;;;;;;6132087;23;20010;-94
2023/04/17 03:53:40;;;;;;;48.35;17.45;;;;;;;;;;6132179;23;20025;-95
2023/04/17 03:56:06;;;;;;;48.03;16.10;;;;;;;;;;6136277;23;20041;-93
2023/04/17 03:58:32;;;;;;;61.50;18.25;;;;;;;;;;6106427;23;20009;-93
2023/04/17 04:01:00;;;;;;;57.72;17.85;;;;;;;;;;6109031;23;20014;-94
2023/04/17 04:03:27;;;;;;;53.75;18.13;;;;;;;;;;6109707;23;20014;-94
2023/04/17 04:05:56;;;;;;;60.42;19.33;;;;;;;;;;6133089;23;20033;-94
2023/04/17 04:08:44;;;;;;;45.17;18.27;;;;;;;;;;6109418;23;20033;-94
2023/04/17 04:11:12;;;;;;;39.25;17.08;;;;;;;;;;6132147;23;20018;-94
2023/04/17 04:13:39;;;;;;;58.72;19.90;;;;;;;;;;6109603;23;20010;-94
2023/04/17 04:16:05;;;;;;;45.75;20.35;;;;;;;;;;6113506;23;20400;-95
2023/04/17 04:18:33;;;;;;;50.63;20.05;;;;;;;;;;6113136;23;20235;-94
2023/04/17 04:21:05;;;;;;;46.13;19.40;;;;;;;;;;6137338;23;20034;-95
2023/04/17 04:23:38;;;;;;;44.53;18.92;;;;;;;;;;6111189;23;20021;-92
2023/04/17 04:26:10;;;;;;;41.88;18.17;;;;;;;;;;6136760;23;20025;-93
2023/04/17 04:28:41;;;;;;;43.28;17.52;;;;;;;;;;6112437;23;20018;-92
2023/04/17 04:31:13;;;;;;;37.90;18.90;;;;;;;;;;6135224;23;20090;-93
2023/04/17 04:33:40;;;;;;;39.22;17.17;;;;;;;;;;6135646;23;20002;-94
2023/04/17 04:36:06;;;;;;;45.92;17.92;;;;;;;;;;6109163;23;20048;-91
2023/04/17 04:38:41;;;;;;;42.53;17.33;;;;;;;;;;6134391;23;20036;-92
2023/04/17 04:41:09;;;;;;;40.55;17.80;;;;;;;;;;6108302;23;20041;-93
2023/04/17 04:43:36;;;;;;;34.67;16.33;;;;;;;;;;6132596;23;20164;-91
2023/04/17 04:46:02;;;;;;;34.35;17.25;;;;;;;;;;6109138;23;20006;-92
2023/04/17 04:48:29;;;;;;;40.10;18.13;;;;;;;;;;6134710;23;20009;-91
2023/04/17 04:51:00;;;;;;;40.58;16.50;;;;;;;;;;6131956;23;20021;-93
2023/04/17 04:53:26;;;;;;;41.20;17.75;;;;;;;;;;6108577;23;20010;-92
2023/04/17 04:56:04;;;;;;;44.05;18.38;;;;;;;;;;6152056;23;20067;-93
2023/04/17 04:58:31;;;;;;;40.08;18.20;;;;;;;;;;6165474;23;20009;-93
2023/04/17 05:00:57;;;;;;;42.22;17.83;;;;;;;;;;6142289;23;20032;-92
2023/04/17 05:03:27;;;;;;;48.40;19.40;;;;;;;;;;6165558;23;20009;-94
2023/04/17 05:05:56;;;;;;;46.88;18.48;;;;;;;;;;6141300;23;20349;-94
2023/04/17 05:08:25;;;;;;;43.92;18.83;;;;;;;;;;6140522;23;20021;-94
2023/04/17 05:10:52;;;;;;;35.85;17.63;;;;;;;;;;6141831;23;20467;-94
2023/04/17 05:13:18;;;;;;;43.00;18.92;;;;;;;;;;6141175;23;20016;-95
2023/04/17 05:15:56;;;;;;;34.88;17.17;;;;;;;;;;6142555;23;20033;-94
2023/04/17 05:18:22;;;;;;;43.97;18.63;;;;;;;;;;6142175;23;20020;-93
2023/04/17 05:20:50;;;;;;;47.03;18.63;;;;;;;;;;6141718;23;20015;-93
2023/04/17 05:23:21;;;;;;;41.28;18.25;;;;;;;;;;6191661;23;20008;-94
2023/04/17 05:25:48;;;;;;;42.95;18.02;;;;;;;;;;6142454;23;20013;-94
2023/04/17 05:28:15;;;;;;;39.08;18.00;;;;;;;;;;6140836;23;20017;-94
2023/04/17 05:30:46;;;;;;;45.30;19.13;;;;;;;;;;6165935;23;20005;-93
2023/04/17 05:33:13;;;;;;;46.03;19.80;;;;;;;;;;6164836;23;20001;-93
2023/04/17 05:35:42;;;;;;;42.80;18.90;;;;;;;;;;6141432;23;20005;-94
2023/04/17 05:38:09;;;;;;;41.75;18.50;;;;;;;;;;6139742;23;20013;-93
2023/04/17 05:40:35;;;;;;;40.65;18.33;;;;;;;;;;6140563;23;20032;-94
2023/04/17 05:43:09;;;;;;;47.83;19.17;;;;;;;;;;6164702;23;20009;-93
2023/04/17 05:45:37;;;;;;;40.40;18.77;;;;;;;;;;6139794;23;20041;-94
2023/04/17 05:48:29;;;;;;;;;;;;;;;;;;;;;
2023/04/17 05:50:56;;;;;;;39.13;18.70;;;;;;;;;;6190872;23;20039;-94
2023/04/17 05:53:22;;;;;;;34.78;16.65;;;;;;;;;;6164410;23;20005;-93
2023/04/17 05:56:02;;;;;;;41.42;19.10;;;;;;;;;;6164667;23;20001;-93
2023/04/17 05:58:28;;;;;;;45.08;19.08;;;;;;;;;;6164884;23;20009;-94
2023/04/17 06:00:55;;;;;;;38.70;18.48;;;;;;;;;;6140281;23;20015;-92
2023/04/17 06:03:28;;;;;;;33.97;16.13;;;;;;;;;;6165114;23;20031;-94
2023/04/17 06:05:58;;;;;;;40.92;18.10;;;;;;;;;;6164580;23;20020;-94
2023/04/17 06:08:30;;;;;;;36.30;17.33;;;;;;;;;;6165794;23;20013;-95
2023/04/17 06:11:04;;;;;;;40.40;17.73;;;;;;;;;;6140789;23;20091;-93
2023/04/17 06:13:49;;;;;;;34.08;15.95;;;;;;;;;;6163817;23;20008;-95
2023/04/17 06:16:33;;;;;;;30.65;16.50;;;;;;;;;;6140559;23;20005;-95
2023/04/17 06:19:07;;;;;;;30.30;16.17;;;;;;;;;;6141223;23;20016;-94
2023/04/17 06:21:45;;;;;;;31.52;15.70;;;;;;;;;;6166116;23;20095;-96
2023/04/17 06:27:17;;;;;;;30.65;15.48;;;;;;;;;;6084614;23;20010;-96
2023/04/17 06:29:58;;;;;;;29.10;15.50;;;;;;;;;;6142524;23;20033;-96
2023/04/17 06:32:26;;;;;;;30.27;15.15;;;;;;;;;;6167706;23;19993;-95
2023/04/17 06:34:58;;;;;;;30.95;15.38;;;;;;;;;;6163313;23;20005;-96
2023/04/17 06:37:29;;;;;;;29.15;15.48;;;;;;;;;;6173867;23;20028;-96
2023/04/17 06:39:58;;;;;;;28.60;15.50;;;;;;;;;;6172328;23;20040;-96
2023/04/17 06:42:24;;;;;;;34.13;15.95;;;;;;;;;;6142383;23;20009;-94
2023/04/17 06:44:53;;;;;;;29.00;15.02;;;;;;;;;;6164470;23;20016;-94
2023/04/17 06:47:25;;;;;;;25.25;14.25;;;;;;;;;;6149295;23;20122;-95
2023/04/17 06:50:00;;;;;;;25.70;14.52;;;;;;;;;;6174108;23;20005;-93
2023/04/17 06:52:40;;;;;;;25.90;14.25;;;;;;;;;;6172420;23;20005;-96
2023/04/17 06:58:14;;;;;;;;;;;;;;;;;;;;;
2023/04/17 07:00:44;;;;;;;26.80;13.95;;;;;;;;;;6197775;23;20020;-93
2023/04/17 07:03:12;;;;;;;26.25;14.80;;;;;;;;;;6141655;23;20021;-93
2023/04/17 07:08:29;;;;;;;28.88;15.75;;;;;;;;;;6173526;23;20036;-93
2023/04/17 07:10:57;;;;;;;25.95;14.20;;;;;;;;;;6137749;23;20017;-93
2023/04/17 07:13:23;;;;;;;30.95;15.05;;;;;;;;;;6162516;23;20064;-91
2023/04/17 07:15:54;;;;;;;26.20;15.02;;;;;;;;;;6139440;23;20092;-91
2023/04/17 07:18:20;;;;;;;25.60;13.82;;;;;;;;;;6160708;23;20431;-90
2023/04/17 07:20:50;;;;;;;24.20;14.27;;;;;;;;;;6162657;23;20044;-92
2023/04/17 07:23:16;;;;;;;34.28;14.90;;;;;;;;;;6161894;23;20436;-93
2023/04/17 07:25:45;;;;;;;26.02;13.50;;;;;;;;;;6160807;23;20005;-92
2023/04/17 07:28:11;;;;;;;22.88;13.00;;;;;;;;;;6137227;23;20104;-92
2023/04/17 07:30:45;;;;;;;22.60;12.43;;;;;;;;;;6138559;23;20009;-91
2023/04/17 07:33:11;;;;;;;19.80;12.38;;;;;;;;;;6136776;23;20009;-91
2023/04/17 07:35:37;;;;;;;21.25;12.38;;;;;;;;;;6140516;23;20245;-93
2023/04/17 07:38:04;;;;;;;20.90;11.35;;;;;;;;;;6141247;23;20009;-91
2023/04/17 07:40:33;;;;;;;21.23;12.20;;;;;;;;;;6142125;23;20013;-92
2023/04/17 07:42:59;;;;;;;20.33;12.18;;;;;;;;;;6166207;23;20088;-92
2023/04/17 07:45:26;;;;;;;19.98;11.68;;;;;;;;;;6142436;23;20024;-93
2023/04/17 07:47:52;;;;;;;20.58;12.80;;;;;;;;;;6145905;23;20359;-91
2023/04/17 07:50:18;;;;;;;26.17;12.43;;;;;;;;;;6144384;23;20044;-92
2023/04/17 07:52:45;;;;;;;18.90;11.80;;;;;;;;;;6168224;23;20020;-92
2023/04/17 07:55:12;;;;;;;19.98;13.05;;;;;;;;;;6143377;23;20071;-91
2023/04/17 07:57:41;;;;;;;20.10;12.95;;;;;;;;;;6135740;23;20058;-91
2023/04/17 08:00:15;;;;;;;21.92;12.90;;;;;;;;;;6139004;23;20068;-91
2023/04/17 08:02:44;;;;;;;20.02;12.48;;;;;;;;;;6121242;23;20014;-92
2023/04/17 08:05:12;;;;;;;20.15;11.65;;;;;;;;;;6145182;23;20014;-91
2023/04/17 08:07:40;;;;;;;20.95;11.25;;;;;;;;;;6119721;23;20017;-92
2023/04/17 08:10:07;;;;;;;19.38;11.52;;;;;;;;;;6142768;23;20029;-90
2023/04/17 08:12:33;;;;;;;17.80;11.02;;;;;;;;;;6137381;23;20002;-91
2023/04/17 08:14:59;;;;;;;20.33;11.55;;;;;;;;;;6112339;23;20318;-92
2023/04/17 08:17:28;;;;;;;21.38;11.57;;;;;;;;;;6112485;23;20044;-91
2023/04/17 08:19:58;;;;;;;16.77;10.65;;;;;;;;;;6139001;23;20009;-92
2023/04/17 08:22:30;;;;;;;18.83;12.20;;;;;;;;;;6112228;23;20006;-92
2023/04/17 08:25:09;;;;;;;21.67;12.52;;;;;;;;;;6133997;23;20013;-93
2023/04/17 08:27:49;;;;;;;21.58;12.65;;;;;;;;;;6131001;23;20020;-92
2023/04/17 08:30:16;;;;;;;22.30;11.80;;;;;;;;;;6127846;23;20154;-92
2023/04/17 08:32:56;;;;;;;27.70;11.52;;;;;;;;;;6105927;23;20068;-93
2023/04/17 08:35:25;;;;;;;15.60;10.20;;;;;;;;;;6130493;23;20033;-92
2023/04/17 08:37:54;;;;;;;19.00;11.05;;;;;;;;;;6129049;23;20006;-93
2023/04/17 08:40:22;;;;;;;20.77;11.43;;;;;;;;;;6131292;23;20013;-93
2023/04/17 08:42:54;;;;;;;18.02;10.43;;;;;;;;;;6129609;23;20369;-93
2023/04/17 08:45:29;;;;;;;15.63;10.30;;;;;;;;;;6129892;23;20016;-94
2023/04/17 08:47:56;;;;;;;17.20;9.75;;;;;;;;;;6128175;23;20014;-93
2023/04/17 08:50:22;;;;;;;19.02;10.82;;;;;;;;;;6105149;23;20037;-93
2023/04/17 08:52:49;;;;;;;19.52;11.55;;;;;;;;;;6106790;23;20014;-93
2023/04/17 08:55:17;;;;;;;19.90;10.38;;;;;;;;;;6129584;23;20627;-91
2023/04/17 08:58:07;;;;;;;16.60;10.00;;;;;;;;;;6142687;23;20009;-93
2023/04/17 09:00:40;;;;;;;16.10;11.32;;;;;;;;;;6140795;23;20483;-93
2023/04/17 09:03:13;;;;;;;17.30;10.63;;;;;;;;;;6165171;23;20450;-93
2023/04/17 09:05:44;;;;;;;18.77;11.70;;;;;;;;;;6164319;23;20017;-92
2023/04/17 09:08:15;;;;;;;15.68;10.77;;;;;;;;;;6164054;23;20013;-92
2023/04/17 09:10:44;;;;;;;21.52;10.85;;;;;;;;;;6164190;23;20468;-92
2023/04/17 09:13:14;;;;;;;16.08;8.52;;;;;;;;;;6163200;23;20512;-92
2023/04/17 09:15:42;;;;;;;19.92;9.30;;;;;;;;;;6140781;23;20005;-92
2023/04/17 09:18:29;;;;;;;17.35;10.10;;;;;;;;;;6139425;23;20020;-91
2023/04/17 09:21:00;;;;;;;17.20;9.57;;;;;;;;;;6164416;23;20028;-92
2023/04/17 09:23:27;;;;;;;13.07;8.43;;;;;;;;;;6166647;23;20009;-92
2023/04/17 09:26:15;;;;;;;15.50;9.75;;;;;;;;;;6165527;23;20012;-92
2023/04/17 09:28:42;;;;;;;15.20;10.25;;;;;;;;;;6170494;23;20008;-92
2023/04/17 09:31:37;;;;;;;17.90;9.85;;;;;;;;;;6169013;23;20024;-92
2023/04/17 09:34:04;;;;;;;14.65;9.68;;;;;;;;;;6145418;23;20009;-93
2023/04/17 09:36:37;;;;;;;15.85;8.80;;;;;;;;;;6195877;23;20011;-92
2023/04/17 09:39:06;;;;;;;16.73;9.70;;;;;;;;;;6169185;23;20056;-91
2023/04/17 09:41:54;;;;;;;13.43;9.23;;;;;;;;;;6145305;23;20017;-92
2023/04/17 09:44:28;;;;;;;16.25;10.63;;;;;;;;;;6163986;23;20009;-93
2023/04/17 09:46:56;;;;;;;18.58;11.00;;;;;;;;;;6169619;23;20005;-92
2023/04/17 09:49:40;;;;;;;18.08;10.88;;;;;;;;;;6171288;23;20005;-91
2023/04/17 09:52:12;;;;;;;23.55;11.43;;;;;;;;;;6171976;23;20007;-92
2023/04/17 09:54:39;;;;;;;20.23;11.48;;;;;;;;;;6168767;23;20036;-92
2023/04/17 09:57:28;;;;;;;15.32;10.98;;;;;;;;;;6139690;23;20048;-92
2023/04/17 10:00:18;;;;;;;16.40;10.60;;;;;;;;;;6143334;23;20021;-92
2023/04/17 10:02:51;;;;;;;18.88;11.20;;;;;;;;;;6134006;23;20021;-92
2023/04/17 10:05:22;;;;;;;16.30;10.32;;;;;;;;;;6164340;23;20006;-92
2023/04/17 10:07:48;;;;;;;16.17;9.93;;;;;;;;;;6164343;23;19994;-92
2023/04/17 10:10:35;;;;;;;15.93;10.85;;;;;;;;;;6162478;23;20013;-92
2023/04/17 10:13:14;;;;;;;17.98;10.05;;;;;;;;;;6164801;23;20001;-92
2023/04/17 10:15:48;;;;;;;16.65;10.95;;;;;;;;;;6164598;23;20033;-92
2023/04/17 10:18:35;;;;;;;19.15;10.88;;;;;;;;;;6166674;23;20001;-94
2023/04/17 10:27:30;;;;;;;15.02;10.70;;;;;;;;;;6165700;23;20612;-94
2023/04/17 10:30:01;;;;;;;18.50;10.83;;;;;;;;;;6163139;23;20009;-93
2023/04/17 10:32:31;;;;;;;16.17;10.43;;;;;;;;;;6137605;23;20248;-93
2023/04/17 10:35:16;;;;;;;18.30;11.15;;;;;;;;;;6165280;23;20017;-92
2023/04/17 10:38:01;;;;;;;24.55;12.23;;;;;;;;;;6166464;23;20005;-94
2023/04/17 10:40:44;;;;;;;18.70;10.80;;;;;;;;;;6170952;23;20025;-92
2023/04/17 10:43:21;;;;;;;18.48;11.48;;;;;;;;;;6167745;23;20017;-92
2023/04/17 10:49:15;;;;;;;24.33;12.40;;;;;;;;;;6141408;23;20078;-93
2023/04/17 10:52:05;;;;;;;18.92;11.63;;;;;;;;;;6106516;23;20018;-92
2023/04/17 10:54:33;;;;;;;17.63;11.80;;;;;;;;;;6111792;23;20010;-93
2023/04/17 10:57:06;;;;;;;23.48;12.98;;;;;;;;;;6105169;23;20068;-93
2023/04/17 10:59:38;;;;;;;17.70;12.02;;;;;;;;;;6085249;23;20252;-93
2023/04/17 11:02:08;;;;;;;19.25;11.75;;;;;;;;;;6078922;23;20070;-93
2023/04/17 11:04:35;;;;;;;21.23;12.98;;;;;;;;;;6045797;23;20019;-93
2023/04/17 11:07:12;;;;;;;18.20;11.93;;;;;;;;;;6052078;23;20011;-92
2023/04/17 11:10:10;;;;;;;18.33;11.90;;;;;;;;;;6050103;23;20217;-93
2023/04/17 11:12:38;;;;;;;19.30;12.63;;;;;;;;;;6045864;23;20021;-93
2023/04/17 11:15:39;;;;;;;19.55;12.55;;;;;;;;;;6074042;23;20003;-93
2023/04/17 11:18:13;;;;;;;23.55;13.23;;;;;;;;;;5990901;24;19992;-92
2023/04/17 11:20:51;;;;;;;;;;;;;;;;;;;;;
2023/04/17 11:23:18;;;;;;;21.88;12.90;;;;;;;;;;6080775;23;20015;-93
2023/04/17 11:25:46;;;;;;;20.95;14.25;;;;;;;;;;6051371;23;20060;-94
2023/04/17 11:28:21;;;;;;;20.20;12.57;;;;;;;;;;6072544;23;20007;-92
2023/04/17 11:30:50;;;;;;;21.17;14.52;;;;;;;;;;6055136;23;20109;-92
2023/04/17 11:33:16;;;;;;;22.63;13.02;;;;;;;;;;6075434;23;20046;-93
2023/04/17 11:35:51;;;;;;;20.90;13.43;;;;;;;;;;6049994;23;20089;-93
2023/04/17 11:38:22;;;;;;;23.38;12.38;;;;;;;;;;6095451;23;20002;-93
2023/04/17 11:40:50;;;;;;;21.52;12.75;;;;;;;;;;6069570;23;20006;-94
2023/04/17 11:43:16;;;;;;;20.83;12.90;;;;;;;;;;6073766;23;20010;-93
2023/04/17 11:45:43;;;;;;;21.35;12.45;;;;;;;;;;6050622;23;20193;-93
2023/04/17 11:48:21;;;;;;;18.60;12.50;;;;;;;;;;6099108;23;20025;-93
2023/04/17 11:50:48;;;;;;;19.23;12.68;;;;;;;;;;6071053;23;20014;-93
2023/04/17 11:53:16;;;;;;;19.15;12.63;;;;;;;;;;6049530;23;20010;-92
2023/04/17 11:56:10;;;;;;;22.65;12.90;;;;;;;;;;6117730;23;20010;-93
2023/04/17 11:58:53;;;;;;;18.55;13.40;;;;;;;;;;6132055;23;20017;-93
2023/04/17 12:01:25;;;;;;;21.02;13.25;;;;;;;;;;6164584;23;20021;-92
2023/04/17 12:03:56;;;;;;;20.02;11.90;;;;;;;;;;6167723;23;20113;-93
2023/04/17 12:06:46;;;;;;;17.33;12.13;;;;;;;;;;6165161;23;20019;-93
2023/04/17 12:09:33;;;;;;;18.33;12.30;;;;;;;;;;6152140;23;20009;-93
2023/04/17 12:12:02;;;;;;;20.25;13.10;;;;;;;;;;6168740;23;20035;-94
2023/04/17 12:14:28;;;;;;;21.70;13.52;;;;;;;;;;6169733;23;20380;-94
2023/04/17 12:16:54;;;;;;;21.05;12.40;;;;;;;;;;6147672;23;20267;-93
2023/04/17 12:19:21;;;;;;;19.95;12.43;;;;;;;;;;6145333;23;20036;-93
2023/04/17 12:21:51;;;;;;;16.30;12.32;;;;;;;;;;6168893;23;20013;-94
2023/04/17 12:27:13;;;;;;;;;;;;;;;;;;6092276;23;20043;-94
2023/04/17 12:29:43;;;;;;;24.55;12.52;;;;;;;;;;6170340;23;19952;-95
2023/04/17 12:32:09;;;;;;;17.48;12.65;;;;;;;;;;6150989;23;20036;-93
2023/04/17 12:34:37;;;;;;;18.25;12.85;;;;;;;;;;6171511;23;20012;-95
2023/04/17 12:37:09;;;;;;;17.33;11.93;;;;;;;;;;6171774;23;20009;-94
2023/04/17 12:39:41;;;;;;;20.05;12.50;;;;;;;;;;6149005;23;20412;-94
2023/04/17 12:42:11;;;;;;;23.67;12.30;;;;;;;;;;6173891;23;20068;-94
2023/04/17 12:44:41;;;;;;;17.77;12.00;;;;;;;;;;6149629;23;20009;-95
2023/04/17 12:47:07;;;;;;;20.65;12.35;;;;;;;;;;6144927;23;20096;-94
2023/04/17 12:49:36;;;;;;;24.65;12.50;;;;;;;;;;6146479;23;20072;-94
2023/04/17 12:52:29;;;;;;;19.25;12.80;;;;;;;;;;6146368;23;20037;-93
2023/04/17 12:55:06;;;;;;;17.55;12.50;;;;;;;;;;6165221;23;20387;-94
2023/04/17 12:57:54;;;;;;;21.45;12.07;;;;;;;;;;6145266;23;20338;-94
2023/04/17 13:00:25;;;;;;;24.55;13.07;;;;;;;;;;6145522;23;20026;-94
2023/04/17 13:02:52;;;;;;;18.65;12.00;;;;;;;;;;6110812;23;20014;-92
2023/04/17 13:05:18;;;;;;;17.27;10.95;;;;;;;;;;6109628;23;20014;-92
2023/04/17 13:07:45;;;;;;;17.40;12.13;;;;;;;;;;6106803;23;20033;-93
2023/04/17 13:10:16;;;;;;;16.35;10.82;;;;;;;;;;6128747;23;20084;-94
2023/04/17 13:12:43;;;;;;;20.25;12.43;;;;;;;;;;6130161;23;20051;-92
2023/04/17 13:15:09;;;;;;;18.52;11.50;;;;;;;;;;6108480;23;20002;-93
2023/04/17 13:17:38;;;;;;;17.33;11.25;;;;;;;;;;6134639;23;20006;-94
2023/04/17 13:20:05;;;;;;;16.38;11.05;;;;;;;;;;6110587;23;20085;-93
2023/04/17 13:22:31;;;;;;;15.57;10.95;;;;;;;;;;6107355;23;20307;-95
2023/04/17 13:25:01;;;;;;;15.68;9.57;;;;;;;;;;6130959;23;20380;-94
2023/04/17 13:27:27;;;;;;;19.58;11.02;;;;;;;;;;6129428;23;20066;-95
2023/04/17 13:29:54;;;;;;;14.48;9.73;;;;;;;;;;6108288;23;20469;-95
2023/04/17 13:32:21;;;;;;;19.48;10.32;;;;;;;;;;6132545;23;20444;-94
2023/04/17 13:34:50;;;;;;;16.83;10.52;;;;;;;;;;6108757;23;20037;-93
2023/04/17 13:37:17;;;;;;;18.23;10.02;;;;;;;;;;6109343;23;20009;-96
2023/04/17 13:39:43;;;;;;;18.98;10.93;;;;;;;;;;6125988;23;20310;-93
2023/04/17 13:42:10;;;;;;;15.57;10.18;;;;;;;;;;6108553;23;20137;-94
2023/04/17 13:44:36;;;;;;;12.02;10.13;;;;;;;;;;6103597;23;20073;-93
2023/04/17 13:47:02;;;;;;;14.88;9.70;;;;;;;;;;6098064;23;20029;-92
2023/04/17 13:49:28;;;;;;;12.50;9.70;;;;;;;;;;6099761;23;20025;-92
2023/04/17 13:51:56;;;;;;;15.20;11.48;;;;;;;;;;6102367;23;20104;-94
2023/04/17 13:54:22;;;;;;;17.25;9.82;;;;;;;;;;6100090;23;20017;-92
2023/04/17 13:56:48;;;;;;;17.60;10.15;;;;;;;;;;6118747;23;20010;-93
2023/04/17 13:59:14;;;;;;;15.52;10.30;;;;;;;;;;6122376;23;20018;-91
2023/04/17 14:01:47;;;;;;;12.95;9.50;;;;;;;;;;6096195;23;20041;-92
2023/04/17 14:04:13;;;;;;;16.13;10.15;;;;;;;;;;6096724;23;20365;-91
2023/04/17 14:06:39;;;;;;;13.93;8.68;;;;;;;;;;6096624;23;20630;-91
2023/04/17 14:09:06;;;;;;;14.35;9.20;;;;;;;;;;6121996;23;20010;-93
2023/04/17 14:11:32;;;;;;;11.63;8.80;;;;;;;;;;6096249;23;20021;-91
2023/04/17 14:13:58;;;;;;;16.15;9.07;;;;;;;;;;6095808;23;20022;-91
2023/04/17 14:16:26;;;;;;;16.23;9.27;;;;;;;;;;6098406;23;20024;-93
2023/04/17 14:18:53;;;;;;;14.55;9.73;;;;;;;;;;6096654;23;20014;-92
2023/04/17 14:21:23;;;;;;;13.30;9.60;;;;;;;;;;6098038;23;20014;-91
2023/04/17 14:23:50;;;;;;;14.88;10.13;;;;;;;;;;6123016;23;20022;-91
2023/04/17 14:26:16;;;;;;;15.90;9.60;;;;;;;;;;6096999;23;20041;-92
2023/04/17 14:28:42;;;;;;;12.57;8.18;;;;;;;;;;6121541;23;20034;-92
2023/04/17 14:31:08;;;;;;;11.23;8.68;;;;;;;;;;6101510;23;20018;-92
2023/04/17 14:33:34;;;;;;;14.82;8.77;;;;;;;;;;6100854;23;20514;-91
2023/04/17 14:36:01;;;;;;;13.52;9.35;;;;;;;;;;6125846;23;20034;-92
2023/04/17 14:38:27;;;;;;;11.38;8.27;;;;;;;;;;6105869;23;20010;-92
2023/04/17 14:40:53;;;;;;;13.55;8.65;;;;;;;;;;6129841;23;20056;-91
2023/04/17 14:43:19;;;;;;;13.35;8.30;;;;;;;;;;6103898;23;20025;-92
2023/04/17 14:45:45;;;;;;;11.45;7.88;;;;;;;;;;6106101;23;20014;-92
2023/04/17 14:48:12;;;;;;;10.07;7.35;;;;;;;;;;6104781;23;20106;-91
2023/04/17 14:50:39;;;;;;;10.38;7.18;;;;;;;;;;6128866;23;20017;-92
2023/04/17 14:53:05;;;;;;;15.95;8.25;;;;;;;;;;6103137;23;20014;-91
2023/04/17 14:55:31;;;;;;;14.18;8.18;;;;;;;;;;6129959;23;20006;-91
2023/04/17 14:57:57;;;;;;;9.27;6.38;;;;;;;;;;6127207;23;20076;-92
2023/04/17 15:00:24;;;;;;;11.25;7.82;;;;;;;;;;6108353;23;20022;-91
2023/04/17 15:02:50;;;;;;;14.40;9.38;;;;;;;;;;6103488;23;20010;-92
2023/04/17 15:05:18;;;;;;;14.60;9.35;;;;;;;;;;6103919;23;20021;-90
2023/04/17 15:07:45;;;;;;;15.73;10.07;;;;;;;;;;6104740;23;20021;-91
2023/04/17 15:10:15;;;;;;;20.23;9.00;;;;;;;;;;6105228;23;20021;-91